Daydream Believer — V7XJ3 — position and weather

sailwx.info

Track history (hours):
 
Tides and Currents Weather Stations Pressure Air Temp Water Temp Dewpoint Dewpoint Depression Visibility Wind Speed Wind Dir Waves Ship Positions

Daydream Believer

Last reported at 2018-Apr-21 21:08 UTC. Time now 2018-Apr-24 18:35 UTC.
Position S 20°51' E 114°42'.

Length 178 m; draft 6.7 m.

Type: Cargo ship. MMSI: 538004493.

Date/timePositionNaut miles runAvg speedWind from/ knotsBaromVisibWave heightAir tempDewpointWater temp
2018-Apr-21 21:08S 20°51' E 114°42'212.6
2018-Apr-21 21:00S 20°49' E 114°41'812.9
2018-Apr-21 20:24S 20°42' E 114°38'2013.1
2018-Apr-21 18:53S 20°23' E 114°31'713.4
2018-Apr-21 18:21S 20°17' E 114°29'1713.3
2018-Apr-21 17:05S 20°01' E 114°22'112.7
2018-Apr-21 17:00S 20°00' E 114°22'1012.8
2018-Apr-21 16:14S 19°50' E 114°23'312.6
2018-Apr-21 16:00S 19°47' E 114°23'612.7
2018-Apr-21 15:30S 19°41' E 114°24'712.7
2018-Apr-21 14:59S 19°34' E 114°25'612.6
2018-Apr-21 14:28S 19°28' E 114°26'712.6
2018-Apr-21 13:55S 19°21' E 114°27'1412.6
2018-Apr-21 12:50S 19°08' E 114°28'512.5
2018-Apr-21 12:27S 19°03' E 114°29'3412.7
2018-Apr-21 09:45S 18°29' E 114°33'412.9
2018-Apr-21 09:26S 18°25' E 114°33'613.0
2018-Apr-21 08:59S 18°19' E 114°34'713.3
2018-Apr-21 08:30S 18°12' E 114°35'3712.5
2018-Apr-21 05:33S 17°36' E 114°39'112.4
2018-Apr-21 05:29S 17°35' E 114°39'612.6
2018-Apr-21 05:00S 17°29' E 114°40'1612.2
2018-Apr-21 03:43S 17°13' E 114°42'312.3
2018-Apr-21 03:28S 17°10' E 114°42'612.5
2018-Apr-21 02:59S 17°04' E 114°43'612.5
2018-Apr-21 02:29S 16°58' E 114°43'1612.6
2018-Apr-21 01:11S 16°42' E 114°45'212.9
2018-Apr-21 01:00S 16°40' E 114°46'912.8
2018-Apr-21 00:19S 16°31' E 114°47'413.0
2018-Apr-21 00:00S 16°27' E 114°47'  
Track history (hours):
 
Tides and Currents Weather Stations Pressure Air Temp Water Temp Dewpoint Dewpoint Depression Visibility Wind Speed Wind Dir Waves Ship Positions

Daydream Believer

Last reported at 2018-Apr-21 21:08 UTC. Time now 2018-Apr-24 18:35 UTC.
Position S 20°51' E 114°42'.

Length 178 m; draft 6.7 m.

Type: Cargo ship. MMSI: 538004493.

Date/timePositionNaut miles runAvg speedWind from/ knotsBaromVisibWave heightAir tempDewpointWater temp
2018-Apr-21 21:08S 20°51' E 114°42'212.6
2018-Apr-21 21:00S 20°49' E 114°41'812.9
2018-Apr-21 20:24S 20°42' E 114°38'2013.1
2018-Apr-21 18:53S 20°23' E 114°31'713.4
2018-Apr-21 18:21S 20°17' E 114°29'1713.3
2018-Apr-21 17:05S 20°01' E 114°22'112.7
2018-Apr-21 17:00S 20°00' E 114°22'1012.8
2018-Apr-21 16:14S 19°50' E 114°23'312.6
2018-Apr-21 16:00S 19°47' E 114°23'612.7
2018-Apr-21 15:30S 19°41' E 114°24'712.7
2018-Apr-21 14:59S 19°34' E 114°25'612.6
2018-Apr-21 14:28S 19°28' E 114°26'712.6
2018-Apr-21 13:55S 19°21' E 114°27'1412.6
2018-Apr-21 12:50S 19°08' E 114°28'512.5
2018-Apr-21 12:27S 19°03' E 114°29'3412.7
2018-Apr-21 09:45S 18°29' E 114°33'412.9
2018-Apr-21 09:26S 18°25' E 114°33'613.0
2018-Apr-21 08:59S 18°19' E 114°34'713.3
2018-Apr-21 08:30S 18°12' E 114°35'3712.5
2018-Apr-21 05:33S 17°36' E 114°39'112.4
2018-Apr-21 05:29S 17°35' E 114°39'612.6
2018-Apr-21 05:00S 17°29' E 114°40'1612.2
2018-Apr-21 03:43S 17°13' E 114°42'312.3
2018-Apr-21 03:28S 17°10' E 114°42'612.5
2018-Apr-21 02:59S 17°04' E 114°43'612.5
2018-Apr-21 02:29S 16°58' E 114°43'1612.6
2018-Apr-21 01:11S 16°42' E 114°45'212.9
2018-Apr-21 01:00S 16°40' E 114°46'912.8
2018-Apr-21 00:19S 16°31' E 114°47'413.0
2018-Apr-21 00:00S 16°27' E 114°47'  

Dump ship's entire track history